createdAt,value
2022-09-14T00:00:10.273Z,15.82
2022-09-14T00:03:12.841Z,15.89
2022-09-14T00:06:17.405Z,15.98
2022-09-14T00:09:22.601Z,15.92
2022-09-14T00:12:25.176Z,15.97
2022-09-14T00:15:27.724Z,15.98
2022-09-14T00:18:30.419Z,15.97
2022-09-14T00:21:35.013Z,15.85
2022-09-14T00:24:37.493Z,15.81
2022-09-14T00:27:40.018Z,15.85
2022-09-14T00:30:43.134Z,15.86
2022-09-14T00:33:47.510Z,15.86
2022-09-14T00:36:52.763Z,15.81
2022-09-14T00:39:55.262Z,15.73
2022-09-14T00:42:57.773Z,15.69
2022-09-14T00:46:02.211Z,15.75
2022-09-14T00:49:09.199Z,15.71
2022-09-14T00:52:17.182Z,15.60
2022-09-14T00:55:23.311Z,15.61
2022-09-14T00:58:25.910Z,15.68
2022-09-14T01:01:29.235Z,15.68
2022-09-14T01:04:32.362Z,15.66
2022-09-14T01:07:50.395Z,15.55
2022-09-14T01:11:11.108Z,15.55
2022-09-14T01:14:21.531Z,15.47
2022-09-14T01:17:31.452Z,15.53
2022-09-14T01:20:38.623Z,15.39
2022-09-14T01:23:50.343Z,15.43
2022-09-14T01:27:11.840Z,15.39
2022-09-14T01:30:21.552Z,15.34
2022-09-14T01:33:31.197Z,15.36
2022-09-14T01:36:37.631Z,15.32
2022-09-14T01:39:44.225Z,15.31
2022-09-14T01:42:52.790Z,15.19
2022-09-14T01:46:00.916Z,15.20
2022-09-14T01:49:11.033Z,15.29
2022-09-14T01:52:17.698Z,15.21
2022-09-14T01:55:28.168Z,15.13
2022-09-14T01:58:37.996Z,15.15
2022-09-14T02:01:50.668Z,15.18
2022-09-14T02:04:59.842Z,15.13
2022-09-14T02:08:02.732Z,15.16
2022-09-14T02:11:05.310Z,15.10
2022-09-14T02:14:09.554Z,15.12
2022-09-14T02:17:12.101Z,14.98
2022-09-14T02:20:20.217Z,15.00
2022-09-14T02:23:23.198Z,15.09
2022-09-14T02:26:25.999Z,15.02
2022-09-14T02:29:30.164Z,14.99
2022-09-14T02:32:40.391Z,15.09
2022-09-14T02:35:50.036Z,14.91
2022-09-14T02:38:59.729Z,14.97
2022-09-14T02:42:13.419Z,14.93
2022-09-14T02:45:26.301Z,15.04
2022-09-14T02:48:36.070Z,15.02
2022-09-14T02:51:46.752Z,15.00
2022-09-14T02:54:57.758Z,15.02
2022-09-14T02:58:01.973Z,14.82
2022-09-14T03:01:07.403Z,14.84
2022-09-14T03:04:09.968Z,14.74
2022-09-14T03:07:12.445Z,14.82
2022-09-14T03:10:15.266Z,14.90
2022-09-14T03:13:18.169Z,14.88
2022-09-14T03:16:22.020Z,14.89
2022-09-14T03:19:24.603Z,14.83
2022-09-14T03:22:27.115Z,14.83
2022-09-14T03:25:30.102Z,14.45
2022-09-14T03:28:32.594Z,14.71
2022-09-14T03:31:36.451Z,14.55
2022-09-14T03:34:39.425Z,14.61
2022-09-14T03:37:43.274Z,14.58
2022-09-14T03:40:46.013Z,14.52
2022-09-14T03:44:00.032Z,14.69
2022-09-14T03:47:03.961Z,14.72
2022-09-14T03:50:07.648Z,14.70
2022-09-14T03:53:10.369Z,14.74
2022-09-14T03:56:15.548Z,14.74
2022-09-14T03:59:18.038Z,14.66
2022-09-14T04:02:21.949Z,14.47
2022-09-14T04:05:24.419Z,14.45
2022-09-14T04:08:27.633Z,14.47
2022-09-14T04:11:31.466Z,14.44
2022-09-14T04:14:33.984Z,14.42
2022-09-14T04:17:37.826Z,14.41
2022-09-14T04:20:40.319Z,14.36
2022-09-14T04:24:10.152Z,14.40
2022-09-14T04:27:05.448Z,14.39
2022-09-14T04:30:08.713Z,14.37
2022-09-14T04:33:12.556Z,14.26
2022-09-14T04:36:16.771Z,13.93
2022-09-14T04:39:20.029Z,13.93
2022-09-14T04:42:22.506Z,14.24
2022-09-14T04:45:25.157Z,14.04
2022-09-14T04:48:33.454Z,14.12
2022-09-14T04:51:37.253Z,14.11
2022-09-14T04:54:40.055Z,13.74
2022-09-14T04:57:42.552Z,13.73
2022-09-14T05:00:46.263Z,13.68
2022-09-14T05:03:50.651Z,13.95
2022-09-14T05:06:53.128Z,13.93
2022-09-14T05:09:55.682Z,14.30
2022-09-14T05:12:58.182Z,14.44
2022-09-14T05:16:07.117Z,14.32
2022-09-14T05:19:14.622Z,14.61
2022-09-14T05:22:17.375Z,14.69
2022-09-14T05:25:19.853Z,14.74
2022-09-14T05:28:22.327Z,14.89
2022-09-14T05:31:26.647Z,14.99
2022-09-14T05:34:30.570Z,14.87
2022-09-14T05:37:33.055Z,14.93
2022-09-14T05:40:35.537Z,14.31
2022-09-14T05:43:38.319Z,14.76
2022-09-14T05:46:40.937Z,14.86
2022-09-14T05:49:44.831Z,14.73
2022-09-14T05:52:48.785Z,14.77
2022-09-14T05:56:00.312Z,14.61
2022-09-14T05:59:02.811Z,14.88
2022-09-14T06:02:05.601Z,14.68
2022-09-14T06:05:10.123Z,14.84
2022-09-14T06:08:12.679Z,14.92
2022-09-14T06:11:17.962Z,14.77
2022-09-14T06:14:21.259Z,14.96
2022-09-14T06:17:23.850Z,15.09
2022-09-14T06:20:27.861Z,15.24
2022-09-14T06:23:31.812Z,15.09
2022-09-14T06:26:34.390Z,15.43
2022-09-14T06:29:37.024Z,15.01
2022-09-14T06:32:39.557Z,15.35
2022-09-14T06:35:46.229Z,15.53
2022-09-14T06:38:50.208Z,15.62
2022-09-14T06:41:52.885Z,15.67
2022-09-14T06:44:55.462Z,15.78
2022-09-14T06:47:58.199Z,15.78
2022-09-14T06:51:02.281Z,15.83
2022-09-14T06:54:06.113Z,15.95
2022-09-14T06:57:08.601Z,15.96
2022-09-14T07:00:12.161Z,15.78
2022-09-14T07:03:14.677Z,16.05
2022-09-14T07:06:20.954Z,16.13
2022-09-14T07:09:23.474Z,16.29
2022-09-14T07:12:25.946Z,16.19
2022-09-14T07:15:28.428Z,16.26
2022-09-14T07:18:32.680Z,16.42
2022-09-14T07:21:36.726Z,16.40
2022-09-14T07:24:39.181Z,16.51
2022-09-14T07:27:41.673Z,16.47
2022-09-14T07:30:44.190Z,16.43
2022-09-14T07:33:47.458Z,16.57
2022-09-14T07:36:51.279Z,16.78
2022-09-14T07:39:54.150Z,16.57
2022-09-14T07:42:57.698Z,16.87
2022-09-14T07:46:03.301Z,16.25
2022-09-14T07:49:06.709Z,16.38
2022-09-14T07:52:11.218Z,16.81
2022-09-14T07:55:13.894Z,17.08
2022-09-14T07:58:16.412Z,16.95
2022-09-14T08:01:19.144Z,16.91
2022-09-14T08:04:21.873Z,16.85
2022-09-14T08:07:25.787Z,16.99
2022-09-14T08:10:28.495Z,17.00
2022-09-14T08:13:30.974Z,17.24
2022-09-14T08:16:35.384Z,17.21
2022-09-14T08:19:38.306Z,16.71
2022-09-14T08:22:42.673Z,17.16
2022-09-14T08:25:45.310Z,17.58
2022-09-14T08:28:48.821Z,17.71
2022-09-14T08:31:52.013Z,18.05
2022-09-14T08:34:54.657Z,18.69
2022-09-14T08:37:59.525Z,18.79
2022-09-14T08:41:12.298Z,19.21
2022-09-14T08:44:19.065Z,19.27
2022-09-14T08:47:27.934Z,19.07
2022-09-14T08:50:34.739Z,18.99
2022-09-14T08:53:42.408Z,18.90
2022-09-14T08:56:48.011Z,18.64
2022-09-14T08:59:56.467Z,18.70
2022-09-14T09:03:34.974Z,18.87
2022-09-14T09:06:45.176Z,18.98
2022-09-14T09:09:50.832Z,19.07
2022-09-14T09:12:57.402Z,19.30
2022-09-14T09:16:03.801Z,19.18
2022-09-14T09:19:11.972Z,19.26
2022-09-14T09:22:18.144Z,19.38
2022-09-14T09:25:26.702Z,19.23
2022-09-14T09:28:30.512Z,19.95
2022-09-14T09:31:35.771Z,20.38
2022-09-14T09:34:38.348Z,21.00
2022-09-14T09:37:41.243Z,21.23
2022-09-14T09:40:48.248Z,21.06
2022-09-14T09:44:10.456Z,21.20
2022-09-14T09:47:12.995Z,21.72
2022-09-14T09:50:20.026Z,21.33
2022-09-14T09:53:24.388Z,20.87
2022-09-14T09:56:29.888Z,20.69
2022-09-14T09:59:36.330Z,20.59
2022-09-14T10:02:38.930Z,20.42
2022-09-14T10:05:41.508Z,20.13
2022-09-14T10:08:46.505Z,19.92
2022-09-14T10:11:58.919Z,19.70
2022-09-14T10:15:14.474Z,19.59
2022-09-14T10:18:18.878Z,19.57
2022-09-14T10:21:22.423Z,19.89
2022-09-14T10:24:24.906Z,20.02
2022-09-14T10:27:39.607Z,20.58
2022-09-14T10:30:49.203Z,20.70
2022-09-14T10:33:55.850Z,20.72
2022-09-14T10:37:12.492Z,20.80
2022-09-14T10:40:19.555Z,21.02
2022-09-14T10:43:35.174Z,20.86
2022-09-14T10:46:49.418Z,20.43
2022-09-14T10:50:04.371Z,20.05
2022-09-14T10:53:20.998Z,19.85
2022-09-14T10:56:28.369Z,19.81
2022-09-14T10:59:40.314Z,19.70
2022-09-14T11:02:58.459Z,19.45
2022-09-14T11:06:12.373Z,19.51
2022-09-14T11:09:22.661Z,19.39
2022-09-14T11:12:34.616Z,19.53
2022-09-14T11:15:45.383Z,19.64
2022-09-14T11:18:58.323Z,19.48
2022-09-14T11:22:07.404Z,19.49
2022-09-14T11:25:15.512Z,19.34
2022-09-14T11:28:22.473Z,19.29
2022-09-14T11:31:30.887Z,19.18
2022-09-14T11:34:39.047Z,19.17
2022-09-14T11:37:46.548Z,19.30
2022-09-14T11:40:55.453Z,19.19
2022-09-14T11:44:01.937Z,19.37
2022-09-14T11:47:10.566Z,19.92
2022-09-14T11:50:19.636Z,20.68
2022-09-14T11:53:25.715Z,21.22
2022-09-14T11:56:30.704Z,20.88
2022-09-14T11:59:37.444Z,20.73
2022-09-14T12:03:00.395Z,20.56
2022-09-14T12:06:47.910Z,20.26
2022-09-14T12:09:55.054Z,20.20
2022-09-14T12:12:59.557Z,19.77
2022-09-14T12:16:04.425Z,19.80
2022-09-14T12:19:18.734Z,19.67
2022-09-14T12:22:30.582Z,19.50
2022-09-14T12:25:33.367Z,19.61
2022-09-14T12:28:47.894Z,19.47
2022-09-14T12:32:03.131Z,19.34
2022-09-14T12:35:44.420Z,19.36
2022-09-14T12:39:21.010Z,19.17
2022-09-14T12:42:29.844Z,18.94
2022-09-14T12:45:53.167Z,18.70
2022-09-14T12:48:58.741Z,18.97
2022-09-14T12:52:15.328Z,18.91
2022-09-14T12:55:32.397Z,19.05
2022-09-14T12:59:04.007Z,19.27
2022-09-14T13:02:34.847Z,19.07
2022-09-14T13:05:37.881Z,19.27
2022-09-14T13:08:45.934Z,19.38
2022-09-14T13:11:54.401Z,19.46
2022-09-14T13:15:01.435Z,19.72
2022-09-14T13:18:06.619Z,20.03
2022-09-14T13:21:20.016Z,20.12
2022-09-14T13:24:32.505Z,20.07
2022-09-14T13:27:38.070Z,19.98
2022-09-14T13:30:41.778Z,19.94
2022-09-14T13:33:53.429Z,20.02
2022-09-14T13:36:57.809Z,19.95
2022-09-14T13:40:01.828Z,19.96
2022-09-14T13:43:04.864Z,19.92
2022-09-14T13:46:08.605Z,19.93
2022-09-14T13:49:13.661Z,19.93
2022-09-14T13:52:43.183Z,19.72
2022-09-14T13:55:51.725Z,19.45
2022-09-14T13:59:16.280Z,19.52
2022-09-14T14:02:18.834Z,19.39
2022-09-14T14:05:24.413Z,19.37
2022-09-14T14:08:31.349Z,19.27
2022-09-14T14:11:37.793Z,19.12
2022-09-14T14:14:40.630Z,19.20
2022-09-14T14:17:43.411Z,19.14
2022-09-14T14:20:45.993Z,19.17
2022-09-14T14:24:11.750Z,19.25
2022-09-14T14:27:28.808Z,19.13
2022-09-14T14:30:33.922Z,19.21
2022-09-14T14:33:37.359Z,19.27
2022-09-14T14:36:39.848Z,19.06
2022-09-14T14:39:48.958Z,19.01
2022-09-14T14:42:54.258Z,19.21
2022-09-14T14:45:58.924Z,19.05
2022-09-14T14:49:01.441Z,19.17
2022-09-14T14:52:04.289Z,19.12
2022-09-14T14:55:08.606Z,19.27
2022-09-14T14:58:16.995Z,19.19
2022-09-14T15:01:19.481Z,19.22
2022-09-14T15:04:22.506Z,19.32
2022-09-14T15:07:25.074Z,19.29
2022-09-14T15:10:30.538Z,19.23
2022-09-14T15:13:34.359Z,19.29
2022-09-14T15:16:36.940Z,19.29
2022-09-14T15:19:39.518Z,19.11
2022-09-14T15:22:42.285Z,19.20
2022-09-14T15:25:44.802Z,19.34
2022-09-14T15:28:49.500Z,19.41
2022-09-14T15:31:52.073Z,19.23
2022-09-14T15:34:54.672Z,19.28
2022-09-14T15:37:57.400Z,19.39
2022-09-14T15:41:00.013Z,19.39
2022-09-14T15:44:04.677Z,19.28
2022-09-14T15:47:07.395Z,19.41
2022-09-14T15:50:11.202Z,19.47
2022-09-14T15:53:14.534Z,19.50
2022-09-14T15:56:17.288Z,19.58
2022-09-14T15:59:22.138Z,19.35
2022-09-14T16:02:27.369Z,19.29
2022-09-14T16:05:30.034Z,19.27
2022-09-14T16:08:32.504Z,19.21
2022-09-14T16:11:36.325Z,19.11
2022-09-14T16:14:40.229Z,19.15
2022-09-14T16:17:42.718Z,19.11
2022-09-14T16:20:45.223Z,19.12
2022-09-14T16:23:49.979Z,19.06
2022-09-14T16:26:53.174Z,19.04
2022-09-14T16:29:57.007Z,19.02
2022-09-14T16:33:01.714Z,19.03
2022-09-14T16:36:07.773Z,18.91
2022-09-14T16:39:14.598Z,18.96
2022-09-14T16:42:17.081Z,18.90
2022-09-14T16:45:21.018Z,18.72
2022-09-14T16:48:23.597Z,18.83
2022-09-14T16:51:28.039Z,18.77
2022-09-14T16:54:31.758Z,18.74
2022-09-14T16:57:37.284Z,18.81
2022-09-14T17:00:44.126Z,18.72
2022-09-14T17:03:48.846Z,18.61
2022-09-14T17:06:52.292Z,18.57
2022-09-14T17:09:54.815Z,18.38
2022-09-14T17:12:57.371Z,18.35
2022-09-14T17:16:05.983Z,18.26
2022-09-14T17:19:08.593Z,18.16
2022-09-14T17:22:11.350Z,18.06
2022-09-14T17:25:16.831Z,18.03
2022-09-14T17:28:22.038Z,17.92
2022-09-14T17:31:28.182Z,17.90
2022-09-14T17:34:30.725Z,17.83
2022-09-14T17:37:33.233Z,17.61
2022-09-14T17:40:35.803Z,17.58
2022-09-14T17:43:39.765Z,17.64
2022-09-14T17:46:52.060Z,17.64
2022-09-14T17:49:55.341Z,17.56
2022-09-14T17:52:57.867Z,17.56
2022-09-14T17:56:04.410Z,17.60
2022-09-14T17:59:11.140Z,17.52
2022-09-14T18:02:14.965Z,17.44
2022-09-14T18:05:17.461Z,17.25
2022-09-14T18:08:20.027Z,17.19
2022-09-14T18:11:23.617Z,17.24
2022-09-14T18:14:26.614Z,17.28
2022-09-14T18:17:30.683Z,17.32
2022-09-14T18:20:33.247Z,17.20
2022-09-14T18:23:36.557Z,17.22
2022-09-14T18:26:39.134Z,17.19
2022-09-14T18:29:41.619Z,17.19
2022-09-14T18:32:46.223Z,17.19
2022-09-14T18:35:48.720Z,17.11
2022-09-14T18:38:52.956Z,17.08
2022-09-14T18:41:56.214Z,17.07
2022-09-14T18:44:58.715Z,16.99
2022-09-14T18:48:02.838Z,17.03
2022-09-14T18:51:05.910Z,16.92
2022-09-14T18:54:09.097Z,16.86
2022-09-14T18:57:11.643Z,16.88
2022-09-14T19:00:18.519Z,16.84
2022-09-14T19:03:22.672Z,16.77
2022-09-14T19:06:25.211Z,16.72
2022-09-14T19:09:27.714Z,16.67
2022-09-14T19:12:30.221Z,16.69
2022-09-14T19:15:34.383Z,16.65
2022-09-14T19:18:38.439Z,16.58
2022-09-14T19:21:41.086Z,16.52
2022-09-14T19:24:43.662Z,16.59
2022-09-14T19:27:46.166Z,16.51
2022-09-14T19:30:49.995Z,16.53
2022-09-14T19:33:54.717Z,16.41
2022-09-14T19:36:57.275Z,16.41
2022-09-14T19:39:59.898Z,16.36
2022-09-14T19:43:02.490Z,16.25
2022-09-14T19:46:06.219Z,16.25
2022-09-14T19:49:14.817Z,16.22
2022-09-14T19:52:17.316Z,16.18
2022-09-14T19:55:20.493Z,16.10
2022-09-14T19:58:23.176Z,16.10
2022-09-14T20:01:27.334Z,15.85
2022-09-14T20:04:31.201Z,15.89
2022-09-14T20:07:33.704Z,15.78
2022-09-14T20:10:36.637Z,15.81
2022-09-14T20:13:39.776Z,15.76
2022-09-14T20:16:44.885Z,15.65
2022-09-14T20:19:48.816Z,15.67
2022-09-14T20:22:51.692Z,15.55
2022-09-14T20:25:54.219Z,15.46
2022-09-14T20:28:57.765Z,15.37
2022-09-14T20:32:00.503Z,15.28
2022-09-14T20:35:04.592Z,15.28
2022-09-14T20:38:07.078Z,15.26
2022-09-14T20:41:10.643Z,15.22
2022-09-14T20:44:13.724Z,15.27
2022-09-14T20:47:16.195Z,15.24
2022-09-14T20:50:20.025Z,15.26
2022-09-14T20:53:22.560Z,15.20
2022-09-14T20:56:26.644Z,15.16
2022-09-14T20:59:30.363Z,15.31
2022-09-14T21:02:32.970Z,15.34
2022-09-14T21:05:36.841Z,15.43
2022-09-14T21:08:41.828Z,15.34
2022-09-14T21:11:45.704Z,15.39
2022-09-14T21:14:48.436Z,15.38
2022-09-14T21:17:50.914Z,15.36
2022-09-14T21:20:54.733Z,15.24
2022-09-14T21:23:59.109Z,15.33
2022-09-14T21:27:01.592Z,15.23
2022-09-14T21:30:04.582Z,15.26
2022-09-14T21:33:07.073Z,15.17
2022-09-14T21:36:15.441Z,15.14
2022-09-14T21:39:21.345Z,15.09
2022-09-14T21:42:24.198Z,15.07
2022-09-14T21:45:26.766Z,14.95
2022-09-14T21:48:29.303Z,15.01
2022-09-14T21:51:35.652Z,14.86
2022-09-14T21:54:38.146Z,14.98
2022-09-14T21:57:40.678Z,14.87
2022-09-14T22:00:43.169Z,14.97
2022-09-14T22:03:46.769Z,14.93
2022-09-14T22:06:51.294Z,14.99
2022-09-14T22:09:53.839Z,14.93
2022-09-14T22:12:56.472Z,14.93
2022-09-14T22:15:59.369Z,14.99
2022-09-14T22:19:04.692Z,14.93
2022-09-14T22:22:08.522Z,14.88
2022-09-14T22:25:11.014Z,14.86
2022-09-14T22:28:13.576Z,14.69
2022-09-14T22:31:16.905Z,14.83
2022-09-14T22:34:21.116Z,14.90
2022-09-14T22:37:25.076Z,14.55
2022-09-14T22:40:27.594Z,14.51
2022-09-14T22:43:30.695Z,14.64
2022-09-14T22:46:33.891Z,14.68
2022-09-14T22:49:36.478Z,14.50
2022-09-14T22:52:40.487Z,14.70
2022-09-14T22:55:44.698Z,14.29
2022-09-14T22:58:48.040Z,14.48
2022-09-14T23:01:50.670Z,14.68
2022-09-14T23:04:53.234Z,14.61
2022-09-14T23:07:57.346Z,14.68
2022-09-14T23:11:04.158Z,14.56
2022-09-14T23:14:06.716Z,14.63
2022-09-14T23:17:09.238Z,14.69
2022-09-14T23:20:12.427Z,14.72
2022-09-14T23:23:16.225Z,14.58
2022-09-14T23:26:18.763Z,14.36
2022-09-14T23:29:21.243Z,14.51
2022-09-14T23:32:23.762Z,14.28
2022-09-14T23:35:27.023Z,14.49
2022-09-14T23:38:30.881Z,14.71
2022-09-14T23:41:33.397Z,14.61
2022-09-14T23:44:36.260Z,14.74
2022-09-14T23:47:39.447Z,14.78
2022-09-14T23:50:41.917Z,14.61
2022-09-14T23:53:45.946Z,14.81
2022-09-14T23:56:48.482Z,14.83
2022-09-14T23:59:50.969Z,14.83
